createdAt,value
2023-01-11T00:04:54.729Z,5.94
2023-01-11T00:09:56.457Z,5.99
2023-01-11T00:20:08.843Z,6.10
2023-01-11T00:25:10.536Z,7.50
2023-01-11T00:30:12.484Z,7.71
2023-01-11T00:35:14.506Z,6.36
2023-01-11T00:40:16.332Z,7.63
2023-01-11T00:45:36.704Z,6.98
2023-01-11T00:50:40.110Z,5.78
2023-01-11T00:55:42.736Z,8.50
2023-01-11T01:00:44.560Z,7.92
2023-01-11T01:05:46.303Z,7.38
2023-01-11T01:10:51.796Z,7.46
2023-01-11T01:15:58.865Z,6.56
2023-01-11T01:21:00.651Z,7.21
2023-01-11T01:26:06.370Z,7.62
2023-01-11T01:31:08.376Z,8.66
2023-01-11T01:36:10.352Z,7.98
2023-01-11T01:41:15.442Z,8.21
2023-01-11T01:46:18.443Z,8.10
2023-01-11T01:51:25.725Z,9.22
2023-01-11T01:56:51.465Z,7.99
2023-01-11T02:01:53.817Z,8.31
2023-01-11T02:07:03.546Z,6.69
2023-01-11T02:12:06.993Z,8.69
2023-01-11T02:17:10.829Z,8.28
2023-01-11T02:22:36.852Z,7.13
2023-01-11T02:28:03.148Z,7.18
2023-01-11T02:33:23.019Z,6.99
2023-01-11T02:38:47.518Z,7.63
2023-01-11T02:44:21.328Z,6.59
2023-01-11T02:49:42.372Z,6.43
2023-01-11T02:54:47.923Z,8.52
2023-01-11T02:59:50.809Z,8.54
2023-01-11T03:04:52.520Z,7.87
2023-01-11T03:10:15.321Z,9.33
2023-01-11T03:15:41.070Z,7.35
2023-01-11T03:20:50.440Z,8.19
2023-01-11T03:25:54.821Z,9.91
2023-01-11T03:31:09.145Z,9.62
2023-01-11T03:36:39.024Z,9.71
2023-01-11T03:41:43.306Z,8.86
2023-01-11T03:46:49.715Z,8.78
2023-01-11T03:51:53.890Z,9.13
2023-01-11T03:57:10.969Z,9.45
2023-01-11T04:02:20.017Z,7.90
2023-01-11T04:07:21.670Z,8.69
2023-01-11T04:12:23.370Z,9.75
2023-01-11T04:17:25.004Z,7.41
2023-01-11T04:22:26.729Z,9.78
2023-01-11T04:27:28.409Z,9.81
2023-01-11T04:32:30.056Z,9.39
2023-01-11T04:37:31.763Z,9.97
2023-01-11T04:42:33.475Z,10.25
2023-01-11T04:47:35.123Z,9.37
2023-01-11T04:52:36.899Z,10.98
2023-01-11T04:57:38.636Z,9.70
2023-01-11T05:02:40.832Z,10.18
2023-01-11T05:07:42.482Z,9.40
2023-01-11T05:12:44.298Z,9.20
2023-01-11T05:17:45.956Z,9.78
2023-01-11T05:22:48.301Z,10.28
2023-01-11T05:27:50.051Z,9.84
2023-01-11T05:32:51.823Z,10.71
2023-01-11T05:37:53.481Z,9.89
2023-01-11T05:42:55.242Z,9.96
2023-01-11T05:47:56.923Z,9.74
2023-01-11T05:52:58.630Z,10.91
2023-01-11T05:58:00.367Z,9.44
2023-01-11T06:03:02.453Z,9.86
2023-01-11T06:08:04.297Z,10.61
2023-01-11T06:13:24.646Z,9.62
2023-01-11T06:18:26.698Z,9.76
2023-01-11T06:23:30.265Z,10.24
2023-01-11T06:28:31.940Z,10.19
2023-01-11T06:33:34.596Z,9.98
2023-01-11T06:38:36.971Z,9.56
2023-01-11T06:43:41.901Z,10.01
2023-01-11T06:48:44.679Z,8.59
2023-01-11T06:53:46.647Z,9.71
2023-01-11T06:58:48.786Z,8.60
2023-01-11T07:03:50.724Z,8.68
2023-01-11T07:08:52.403Z,8.14
2023-01-11T07:13:54.077Z,9.33
2023-01-11T07:18:55.822Z,9.24
2023-01-11T07:23:57.465Z,9.90
2023-01-11T07:28:59.140Z,9.76
2023-01-11T07:34:00.961Z,11.43
2023-01-11T07:39:02.648Z,10.26
2023-01-11T07:44:04.560Z,9.12
2023-01-11T07:49:06.295Z,11.06
2023-01-11T07:54:08.133Z,9.54
2023-01-11T07:59:10.539Z,10.62
2023-01-11T08:04:14.230Z,10.33
2023-01-11T08:09:15.994Z,10.99
2023-01-11T08:14:36.329Z,10.26
2023-01-11T08:19:38.351Z,11.98
2023-01-11T08:24:40.049Z,8.77
2023-01-11T08:29:44.302Z,10.25
2023-01-11T08:34:46.079Z,11.19
2023-01-11T08:39:48.839Z,11.28
2023-01-11T08:44:50.577Z,10.82
2023-01-11T08:49:52.373Z,10.41
2023-01-11T08:54:54.119Z,11.60
2023-01-11T08:59:56.022Z,10.87
2023-01-11T09:04:57.771Z,10.62
2023-01-11T09:09:59.431Z,8.96
2023-01-11T09:15:01.225Z,8.72
2023-01-11T09:20:03.020Z,9.52
2023-01-11T09:25:05.189Z,9.41
2023-01-11T09:30:07.460Z,10.05
2023-01-11T09:35:09.910Z,11.19
2023-01-11T09:40:20.795Z,10.18
2023-01-11T09:45:24.825Z,10.97
2023-01-11T09:50:41.807Z,9.62
2023-01-11T09:55:46.988Z,9.70
2023-01-11T10:01:01.551Z,10.68
2023-01-11T10:06:29.065Z,11.39
2023-01-11T10:18:38.577Z,12.52
2023-01-11T10:22:51.526Z,12.57
2023-01-11T10:28:23.131Z,11.48
2023-01-11T10:33:57.586Z,12.19
2023-01-11T10:39:37.681Z,11.37
2023-01-11T10:44:49.830Z,11.22
2023-01-11T10:49:57.399Z,10.64
2023-01-11T10:55:00.627Z,10.82
2023-01-11T11:07:01.232Z,9.71
2023-01-11T11:12:17.273Z,10.19
2023-01-11T11:17:24.932Z,9.41
2023-01-11T11:22:27.008Z,9.57
2023-01-11T11:27:37.585Z,10.92
2023-01-11T11:32:52.470Z,10.88
2023-01-11T11:37:54.974Z,10.67
2023-01-11T11:43:21.686Z,9.55
2023-01-11T11:48:25.259Z,11.30
2023-01-11T11:54:02.564Z,10.45
2023-01-11T11:59:16.707Z,11.19
2023-01-11T12:04:31.266Z,11.51
2023-01-11T12:09:35.195Z,10.86
2023-01-11T12:14:36.840Z,12.36
2023-01-11T12:25:03.691Z,11.73
2023-01-11T12:30:07.823Z,11.71
2023-01-11T12:35:42.059Z,11.62
2023-01-11T12:41:09.205Z,11.54
2023-01-11T12:46:19.750Z,12.03
2023-01-11T12:51:50.831Z,11.94
2023-01-11T12:57:06.099Z,11.97
2023-01-11T13:02:07.644Z,12.27
2023-01-11T13:07:24.462Z,11.74
2023-01-11T13:12:52.998Z,11.24
2023-01-11T13:18:10.360Z,11.30
2023-01-11T13:23:39.356Z,12.26
2023-01-11T13:28:44.977Z,12.03
2023-01-11T13:33:53.708Z,11.82
2023-01-11T13:39:04.958Z,13.07
2023-01-11T13:44:24.606Z,12.73
2023-01-11T13:49:51.632Z,13.00
2023-01-11T13:55:26.910Z,11.65
2023-01-11T14:00:56.753Z,11.73
2023-01-11T14:06:34.628Z,13.20
2023-01-11T14:12:01.298Z,13.33
2023-01-11T14:17:14.738Z,12.81
2023-01-11T14:22:19.188Z,12.10
2023-01-11T14:27:44.888Z,12.06
2023-01-11T14:33:02.294Z,13.03
2023-01-11T14:38:28.245Z,11.94
2023-01-11T14:43:48.354Z,12.74
2023-01-11T14:49:20.887Z,12.89
2023-01-11T14:54:39.052Z,12.82
2023-01-11T14:59:40.798Z,12.63
2023-01-11T15:04:51.463Z,13.55
2023-01-11T15:09:53.770Z,12.71
2023-01-11T15:15:07.805Z,12.19
2023-01-11T15:20:16.300Z,12.77
2023-01-11T15:25:20.837Z,13.00
2023-01-11T15:30:31.231Z,12.13
2023-01-11T15:35:34.141Z,13.00
2023-01-11T15:40:43.068Z,12.24
2023-01-11T15:46:22.065Z,12.49
2023-01-11T15:51:49.292Z,11.96
2023-01-11T15:57:23.457Z,11.71
2023-01-11T16:02:37.208Z,11.19
2023-01-11T16:07:46.636Z,11.52
2023-01-11T16:12:59.939Z,10.76
2023-01-11T16:18:11.912Z,10.04
2023-01-11T16:23:19.929Z,9.82
2023-01-11T16:28:22.014Z,9.76
2023-01-11T16:33:27.160Z,10.39
2023-01-11T16:38:30.002Z,11.46
2023-01-11T16:43:34.335Z,10.12
2023-01-11T16:48:35.900Z,11.28
2023-01-11T16:53:43.216Z,10.67
2023-01-11T16:59:05.355Z,10.98
2023-01-11T17:04:32.027Z,11.16
2023-01-11T17:09:33.613Z,12.09
2023-01-11T17:14:55.777Z,12.24
2023-01-11T17:19:59.282Z,12.79
2023-01-11T17:25:17.538Z,10.41
2023-01-11T17:30:25.016Z,10.35
2023-01-11T17:35:33.703Z,13.52
2023-01-11T17:40:39.076Z,12.98
2023-01-11T17:45:41.182Z,12.47
2023-01-11T17:50:49.245Z,12.86
2023-01-11T17:56:00.973Z,12.13
2023-01-11T18:01:08.397Z,10.46
2023-01-11T18:06:22.593Z,10.62
2023-01-11T18:11:33.331Z,11.22
2023-01-11T18:16:35.135Z,9.94
2023-01-11T18:21:55.098Z,12.33
2023-01-11T18:27:28.932Z,11.18
2023-01-11T18:32:35.824Z,10.54
2023-01-11T18:37:37.609Z,9.95
2023-01-11T18:42:39.771Z,10.61
2023-01-11T18:47:41.629Z,11.24
2023-01-11T18:52:43.215Z,11.30
2023-01-11T18:57:44.869Z,12.58
2023-01-11T19:02:46.636Z,10.12
2023-01-11T19:07:48.881Z,8.88
2023-01-11T19:12:50.744Z,8.55
2023-01-11T19:17:52.343Z,10.86
2023-01-11T19:22:53.954Z,11.00
2023-01-11T19:27:55.597Z,11.26
2023-01-11T19:32:57.269Z,12.58
2023-01-11T19:37:58.833Z,10.20
2023-01-11T19:43:00.495Z,11.25
2023-01-11T19:48:02.175Z,10.96
2023-01-11T19:53:03.821Z,9.47
2023-01-11T19:58:07.896Z,9.24
2023-01-11T20:03:09.476Z,10.89
2023-01-11T20:08:11.101Z,11.86
2023-01-11T20:13:12.728Z,11.73
2023-01-11T20:18:14.352Z,10.31
2023-01-11T20:23:15.912Z,12.48
2023-01-11T20:28:17.911Z,11.19
2023-01-11T20:33:19.851Z,11.44
2023-01-11T20:38:21.441Z,10.26
2023-01-11T20:43:23.051Z,11.16
2023-01-11T20:48:24.690Z,9.61
2023-01-11T20:53:26.757Z,10.41
2023-01-11T20:58:28.346Z,11.19
2023-01-11T21:03:29.941Z,10.96
2023-01-11T21:08:31.998Z,10.75
2023-01-11T21:13:34.916Z,10.01
2023-01-11T21:18:36.524Z,11.09
2023-01-11T21:23:38.162Z,10.63
2023-01-11T21:28:40.849Z,10.07
2023-01-11T21:33:42.503Z,9.56
2023-01-11T21:38:44.560Z,10.39
2023-01-11T21:43:46.265Z,10.37
2023-01-11T21:48:47.838Z,11.21
2023-01-11T21:53:49.549Z,11.01
2023-01-11T21:58:51.757Z,11.00
2023-01-11T22:03:53.614Z,9.54
2023-01-11T22:08:55.461Z,10.24
2023-01-11T22:13:57.094Z,10.61
2023-01-11T22:18:59.654Z,10.46
2023-01-11T22:24:01.312Z,9.80
2023-01-11T22:29:12.021Z,10.83
2023-01-11T22:34:14.833Z,10.04
2023-01-11T22:39:16.950Z,10.40
2023-01-11T22:44:19.507Z,11.45
2023-01-11T22:49:21.154Z,10.52
2023-01-11T22:54:23.116Z,10.32
2023-01-11T22:59:25.723Z,10.45
2023-01-11T23:04:27.425Z,9.85
2023-01-11T23:09:29.035Z,10.80
2023-01-11T23:14:33.104Z,10.86
2023-01-11T23:19:37.405Z,9.95
2023-01-11T23:24:39.927Z,10.18
2023-01-11T23:29:41.513Z,10.28
2023-01-11T23:34:43.167Z,10.23
2023-01-11T23:39:44.825Z,10.67
2023-01-11T23:44:47.094Z,9.85
2023-01-11T23:49:50.837Z,10.26
2023-01-11T23:54:52.832Z,9.33
2023-01-11T23:59:54.508Z,11.09
